createdAt,value
2023-02-04T00:01:35.478Z,5.65
2023-02-04T00:04:03.415Z,5.61
2023-02-04T00:06:31.247Z,5.54
2023-02-04T00:08:58.975Z,5.48
2023-02-04T00:11:26.722Z,5.44
2023-02-04T00:13:54.414Z,5.38
2023-02-04T00:16:22.223Z,5.31
2023-02-04T00:18:49.918Z,5.28
2023-02-04T00:21:17.811Z,5.24
2023-02-04T00:23:45.519Z,5.17
2023-02-04T00:26:13.190Z,5.14
2023-02-04T00:28:41.740Z,5.11
2023-02-04T00:31:09.522Z,5.09
2023-02-04T00:33:37.293Z,5.05
2023-02-04T00:36:05.382Z,5.04
2023-02-04T00:38:33.015Z,5.01
2023-02-04T00:41:00.634Z,5.01
2023-02-04T00:43:28.337Z,4.96
2023-02-04T00:45:56.092Z,4.94
2023-02-04T00:48:25.897Z,4.92
2023-02-04T00:50:55.209Z,4.91
2023-02-04T00:53:22.854Z,4.87
2023-02-04T00:55:50.572Z,4.87
2023-02-04T00:58:18.253Z,4.87
2023-02-04T01:00:46.200Z,4.88
2023-02-04T01:03:14.025Z,4.85
2023-02-04T01:05:41.762Z,4.83
2023-02-04T01:08:09.390Z,4.85
2023-02-04T01:10:37.183Z,4.85
2023-02-04T01:13:05.157Z,4.87
2023-02-04T01:15:32.975Z,4.89
2023-02-04T01:18:00.730Z,4.88
2023-02-04T01:20:28.730Z,4.93
2023-02-04T01:22:56.586Z,4.91
2023-02-04T01:25:24.210Z,4.92
2023-02-04T01:27:51.972Z,4.92
2023-02-04T01:30:22.214Z,4.93
2023-02-04T01:32:49.953Z,4.95
2023-02-04T01:35:17.752Z,4.93
2023-02-04T01:37:45.522Z,4.93
2023-02-04T01:40:13.690Z,4.94
2023-02-04T01:42:42.072Z,4.95
2023-02-04T01:45:10.431Z,4.93
2023-02-04T01:47:39.127Z,4.94
2023-02-04T01:50:08.089Z,4.94
2023-02-04T01:52:39.613Z,4.95
2023-02-04T01:55:15.762Z,4.94
2023-02-04T01:57:44.350Z,4.95
2023-02-04T02:00:23.390Z,4.97
2023-02-04T02:02:52.896Z,4.97
2023-02-04T02:05:28.928Z,4.96
2023-02-04T02:07:58.932Z,4.97
2023-02-04T02:10:27.157Z,4.96
2023-02-04T02:12:56.751Z,4.98
2023-02-04T02:15:25.909Z,4.98
2023-02-04T02:17:55.734Z,4.98
2023-02-04T02:20:25.735Z,5.01
2023-02-04T02:23:17.882Z,5.03
2023-02-04T02:25:46.509Z,5.02
2023-02-04T02:28:18.124Z,5.01
2023-02-04T02:30:46.782Z,5.02
2023-02-04T02:33:18.531Z,5.05
2023-02-04T02:35:49.525Z,5.06
2023-02-04T02:38:19.368Z,5.08
2023-02-04T02:40:48.105Z,5.07
2023-02-04T02:43:19.520Z,5.06
2023-02-04T02:45:47.402Z,5.07
2023-02-04T02:48:15.209Z,5.09
2023-02-04T02:50:43.769Z,5.08
2023-02-04T02:53:16.986Z,5.11
2023-02-04T02:55:45.762Z,5.11
2023-02-04T02:58:35.343Z,5.10
2023-02-04T03:01:07.322Z,5.13
2023-02-04T03:03:41.639Z,5.11
2023-02-04T03:06:14.450Z,5.14
2023-02-04T03:08:43.544Z,5.14
2023-02-04T03:11:11.579Z,5.14
2023-02-04T03:13:39.787Z,5.12
2023-02-04T03:16:09.206Z,5.15
2023-02-04T03:18:37.732Z,5.17
2023-02-04T03:21:07.795Z,5.17
2023-02-04T03:23:37.710Z,5.22
2023-02-04T03:26:06.894Z,5.22
2023-02-04T03:28:35.020Z,5.24
2023-02-04T03:31:02.897Z,5.24
2023-02-04T03:33:32.609Z,5.21
2023-02-04T03:36:00.519Z,5.16
2023-02-04T03:38:28.397Z,5.19
2023-02-04T03:40:56.025Z,5.19
2023-02-04T03:43:23.753Z,5.15
2023-02-04T03:45:51.421Z,5.17
2023-02-04T03:48:19.140Z,5.21
2023-02-04T03:50:47.312Z,5.20
2023-02-04T03:53:15.055Z,5.19
2023-02-04T03:55:42.743Z,5.22
2023-02-04T03:58:10.474Z,5.21
2023-02-04T04:00:38.195Z,5.24
2023-02-04T04:03:05.946Z,5.24
2023-02-04T04:05:33.907Z,5.26
2023-02-04T04:08:01.666Z,5.27
2023-02-04T04:10:30.787Z,5.27
2023-02-04T04:12:58.793Z,5.27
2023-02-04T04:15:26.701Z,5.28
2023-02-04T04:17:54.526Z,5.28
2023-02-04T04:20:26.619Z,5.30
2023-02-04T04:22:54.426Z,5.32
2023-02-04T04:25:22.280Z,5.33
2023-02-04T04:27:50.133Z,5.31
2023-02-04T04:30:18.290Z,5.31
2023-02-04T04:32:45.977Z,5.33
2023-02-04T04:35:13.698Z,5.31
2023-02-04T04:37:41.449Z,5.31
2023-02-04T04:40:12.961Z,5.34
2023-02-04T04:42:40.819Z,5.36
2023-02-04T04:45:10.445Z,5.39
2023-02-04T04:47:38.267Z,5.38
2023-02-04T04:50:06.296Z,5.38
2023-02-04T04:52:34.075Z,5.41
2023-02-04T04:55:01.754Z,5.43
2023-02-04T04:57:29.599Z,5.47
2023-02-04T04:59:57.319Z,5.45
2023-02-04T05:02:25.676Z,5.48
2023-02-04T05:04:53.667Z,5.50
2023-02-04T05:07:21.375Z,5.50
2023-02-04T05:09:49.099Z,5.48
2023-02-04T05:12:16.784Z,5.52
2023-02-04T05:14:44.757Z,5.49
2023-02-04T05:17:13.728Z,5.52
2023-02-04T05:19:41.566Z,5.54
2023-02-04T05:22:09.370Z,5.55
2023-02-04T05:24:37.150Z,5.56
2023-02-04T05:27:04.902Z,5.55
2023-02-04T05:29:32.666Z,5.56
2023-02-04T05:32:00.821Z,5.57
2023-02-04T05:34:28.949Z,5.58
2023-02-04T05:36:56.721Z,5.60
2023-02-04T05:39:24.479Z,5.59
2023-02-04T05:41:52.335Z,5.61
2023-02-04T05:44:20.132Z,5.62
2023-02-04T05:46:47.833Z,5.60
2023-02-04T05:49:15.617Z,5.59
2023-02-04T05:51:43.346Z,5.59
2023-02-04T05:54:10.992Z,5.59
2023-02-04T05:56:38.700Z,5.59
2023-02-04T05:59:06.409Z,5.59
2023-02-04T06:01:34.099Z,5.59
2023-02-04T06:04:01.915Z,5.58
2023-02-04T06:06:29.623Z,5.57
2023-02-04T06:08:57.368Z,5.58
2023-02-04T06:11:25.042Z,5.55
2023-02-04T06:13:52.679Z,5.55
2023-02-04T06:16:20.462Z,5.54
2023-02-04T06:18:48.177Z,5.53
2023-02-04T06:21:16.090Z,5.55
2023-02-04T06:23:44.009Z,5.55
2023-02-04T06:26:11.738Z,5.55
2023-02-04T06:28:39.580Z,5.54
2023-02-04T06:31:07.448Z,5.53
2023-02-04T06:33:35.271Z,5.51
2023-02-04T06:36:03.575Z,5.50
2023-02-04T06:38:31.629Z,5.44
2023-02-04T06:40:59.425Z,5.44
2023-02-04T06:43:28.683Z,5.44
2023-02-04T06:45:56.488Z,5.43
2023-02-04T06:48:24.229Z,5.42
2023-02-04T06:50:52.279Z,5.39
2023-02-04T06:53:20.004Z,5.40
2023-02-04T06:55:47.683Z,5.39
2023-02-04T06:58:15.544Z,5.40
2023-02-04T07:00:43.198Z,5.38
2023-02-04T07:03:11.144Z,5.35
2023-02-04T07:05:39.240Z,5.30
2023-02-04T07:08:07.505Z,5.32
2023-02-04T07:10:35.541Z,5.31
2023-02-04T07:13:03.392Z,5.31
2023-02-04T07:15:32.201Z,5.28
2023-02-04T07:17:59.908Z,5.26
2023-02-04T07:20:27.653Z,5.29
2023-02-04T07:22:55.324Z,5.26
2023-02-04T07:25:23.080Z,5.24
2023-02-04T07:27:51.290Z,5.22
2023-02-04T07:30:19.459Z,5.26
2023-02-04T07:32:47.153Z,5.24
2023-02-04T07:35:14.913Z,5.24
2023-02-04T07:37:42.686Z,5.24
2023-02-04T07:40:12.798Z,5.24
2023-02-04T07:42:40.489Z,5.25
2023-02-04T07:45:09.186Z,5.27
2023-02-04T07:47:36.917Z,5.28
2023-02-04T07:50:05.030Z,5.33
2023-02-04T07:52:32.681Z,5.34
2023-02-04T07:55:00.716Z,5.33
2023-02-04T07:57:28.433Z,5.31
2023-02-04T07:59:56.213Z,5.31
2023-02-04T08:02:24.313Z,5.34
2023-02-04T08:04:52.124Z,5.33
2023-02-04T08:07:19.812Z,5.35
2023-02-04T08:09:48.271Z,5.35
2023-02-04T08:12:15.956Z,5.38
2023-02-04T08:14:43.641Z,5.44
2023-02-04T08:17:11.371Z,5.54
2023-02-04T08:19:39.028Z,5.61
2023-02-04T08:22:07.254Z,5.67
2023-02-04T08:24:35.020Z,5.74
2023-02-04T08:27:02.857Z,5.80
2023-02-04T08:29:30.763Z,5.84
2023-02-04T08:31:58.565Z,5.86
2023-02-04T08:34:26.413Z,5.86
2023-02-04T08:36:54.171Z,5.88
2023-02-04T08:39:21.879Z,5.87
2023-02-04T08:41:52.532Z,5.87
2023-02-04T08:44:20.450Z,5.86
2023-02-04T08:46:48.203Z,5.86
2023-02-04T08:49:15.908Z,5.88
2023-02-04T08:51:43.831Z,5.87
2023-02-04T08:54:11.539Z,5.88
2023-02-04T08:56:39.268Z,5.88
2023-02-04T08:59:06.965Z,5.92
2023-02-04T09:01:34.625Z,5.95
2023-02-04T09:04:02.335Z,5.97
2023-02-04T09:06:30.174Z,5.95
2023-02-04T09:08:57.897Z,5.95
2023-02-04T09:11:25.599Z,5.95
2023-02-04T09:13:53.220Z,5.95
2023-02-04T09:16:20.997Z,5.94
2023-02-04T09:18:48.664Z,5.89
2023-02-04T09:21:16.301Z,5.89
2023-02-04T09:23:44.106Z,5.89
2023-02-04T09:26:11.866Z,5.87
2023-02-04T09:28:39.671Z,5.84
2023-02-04T09:31:07.656Z,5.83
2023-02-04T09:33:36.685Z,5.83
2023-02-04T09:36:04.857Z,5.84
2023-02-04T09:38:32.516Z,5.86
2023-02-04T09:41:07.656Z,5.89
2023-02-04T09:43:47.456Z,5.88
2023-02-04T09:46:22.756Z,5.90
2023-02-04T09:48:51.198Z,5.93
2023-02-04T09:51:23.672Z,5.96
2023-02-04T09:53:54.920Z,6.00
2023-02-04T09:56:22.839Z,6.05
2023-02-04T09:58:51.902Z,6.04
2023-02-04T10:01:21.448Z,6.09
2023-02-04T10:03:52.528Z,6.13
2023-02-04T10:06:22.888Z,6.20
2023-02-04T10:08:52.573Z,6.48
2023-02-04T10:11:22.605Z,6.56
2023-02-04T10:13:55.075Z,6.63
2023-02-04T10:16:30.963Z,6.76
2023-02-04T10:19:01.405Z,6.87
2023-02-04T10:21:31.559Z,6.98
2023-02-04T10:24:01.047Z,7.08
2023-02-04T10:26:32.239Z,7.13
2023-02-04T10:29:09.762Z,7.16
2023-02-04T10:31:43.058Z,7.26
2023-02-04T10:34:40.742Z,7.23
2023-02-04T10:37:21.859Z,7.30
2023-02-04T10:39:50.997Z,7.35
2023-02-04T10:42:30.187Z,7.37
2023-02-04T10:44:59.049Z,7.43
2023-02-04T10:47:31.851Z,7.46
2023-02-04T10:50:16.558Z,7.47
2023-02-04T10:52:48.544Z,7.53
2023-02-04T10:55:19.772Z,7.56
2023-02-04T10:57:50.787Z,7.60
2023-02-04T11:00:26.144Z,7.60
2023-02-04T11:03:02.922Z,7.65
2023-02-04T11:05:33.606Z,7.73
2023-02-04T11:08:02.396Z,7.77
2023-02-04T11:10:34.481Z,7.79
2023-02-04T11:13:06.158Z,7.84
2023-02-04T11:15:42.999Z,7.85
2023-02-04T11:18:21.741Z,7.87
2023-02-04T11:20:51.557Z,7.89
2023-02-04T11:23:19.214Z,7.89
2023-02-04T11:25:46.874Z,7.99
2023-02-04T11:28:26.329Z,8.05
2023-02-04T11:31:01.960Z,8.07
2023-02-04T11:33:40.678Z,8.13
2023-02-04T11:36:13.124Z,8.12
2023-02-04T11:38:44.667Z,8.13
2023-02-04T11:41:26.016Z,8.12
2023-02-04T11:43:56.279Z,8.24
2023-02-04T11:46:27.357Z,8.24
2023-02-04T11:48:59.892Z,8.29
2023-02-04T11:51:33.605Z,8.29
2023-02-04T11:54:01.407Z,8.36
2023-02-04T11:56:30.872Z,8.48
2023-02-04T11:58:59.805Z,8.59
2023-02-04T12:01:36.515Z,8.62
2023-02-04T12:04:08.304Z,8.63
2023-02-04T12:06:39.192Z,8.61
2023-02-04T12:09:31.063Z,8.65
2023-02-04T12:12:04.383Z,8.49
2023-02-04T12:14:40.387Z,8.46
2023-02-04T12:17:34.412Z,8.47
2023-02-04T12:20:02.112Z,8.37
2023-02-04T12:22:29.956Z,8.36
2023-02-04T12:24:57.766Z,8.33
2023-02-04T12:27:25.545Z,8.20
2023-02-04T12:29:53.265Z,8.15
2023-02-04T12:32:21.059Z,8.08
2023-02-04T12:34:48.696Z,7.96
2023-02-04T12:37:16.494Z,7.95
2023-02-04T12:39:44.318Z,7.87
2023-02-04T12:42:12.089Z,7.82
2023-02-04T12:44:39.921Z,7.82
2023-02-04T12:47:07.743Z,7.76
2023-02-04T12:49:35.554Z,7.77
2023-02-04T12:52:04.301Z,7.79
2023-02-04T12:54:32.079Z,7.86
2023-02-04T12:57:00.128Z,7.84
2023-02-04T12:59:27.909Z,7.87
2023-02-04T13:01:55.712Z,7.88
2023-02-04T13:04:23.487Z,7.86
2023-02-04T13:06:51.419Z,7.89
2023-02-04T13:09:19.054Z,7.88
2023-02-04T13:11:46.917Z,7.92
2023-02-04T13:14:14.681Z,7.89
2023-02-04T13:16:42.308Z,7.94
2023-02-04T13:19:10.092Z,7.99
2023-02-04T13:21:37.831Z,8.00
2023-02-04T13:24:05.619Z,8.00
2023-02-04T13:26:33.335Z,8.03
2023-02-04T13:29:01.112Z,8.01
2023-02-04T13:31:28.837Z,8.07
2023-02-04T13:33:56.698Z,8.10
2023-02-04T13:36:24.436Z,8.12
2023-02-04T13:38:52.149Z,8.12
2023-02-04T13:41:19.891Z,8.06
2023-02-04T13:43:47.806Z,8.09
2023-02-04T13:46:15.519Z,8.14
2023-02-04T13:48:43.311Z,8.21
2023-02-04T13:51:11.078Z,8.29
2023-02-04T13:53:38.804Z,8.33
2023-02-04T13:56:06.662Z,8.33
2023-02-04T13:58:34.422Z,8.35
2023-02-04T14:01:02.423Z,8.41
2023-02-04T14:03:31.318Z,8.40
2023-02-04T14:05:59.158Z,8.43
2023-02-04T14:08:26.869Z,8.42
2023-02-04T14:10:54.619Z,8.41
2023-02-04T14:13:22.279Z,8.45
2023-02-04T14:15:50.037Z,8.43
2023-02-04T14:18:17.760Z,8.42
2023-02-04T14:20:45.831Z,8.37
2023-02-04T14:23:13.809Z,8.38
2023-02-04T14:25:42.114Z,8.42
2023-02-04T14:28:10.755Z,8.37
2023-02-04T14:30:39.154Z,8.42
2023-02-04T14:33:06.883Z,8.44
2023-02-04T14:35:34.610Z,8.43
2023-02-04T14:38:02.460Z,8.43
2023-02-04T14:40:30.423Z,8.39
2023-02-04T14:42:58.221Z,8.41
2023-02-04T14:45:26.004Z,8.38
2023-02-04T14:47:53.852Z,8.30
2023-02-04T14:50:28.086Z,8.25
2023-02-04T14:52:57.879Z,8.21
2023-02-04T14:55:26.591Z,8.19
2023-02-04T14:57:54.669Z,8.14
2023-02-04T15:00:22.849Z,8.11
2023-02-04T15:02:50.760Z,8.07
2023-02-04T15:05:18.599Z,8.01
2023-02-04T15:07:46.471Z,7.98
2023-02-04T15:10:15.374Z,7.92
2023-02-04T15:12:43.202Z,7.89
2023-02-04T15:15:11.562Z,7.85
2023-02-04T15:17:39.320Z,7.84
2023-02-04T15:20:07.914Z,7.80
2023-02-04T15:22:36.075Z,7.75
2023-02-04T15:25:03.826Z,7.66
2023-02-04T15:27:31.647Z,7.62
2023-02-04T15:29:59.417Z,7.58
2023-02-04T15:32:27.265Z,7.57
2023-02-04T15:34:54.971Z,7.54
2023-02-04T15:37:22.616Z,7.49
2023-02-04T15:39:50.342Z,7.44
2023-02-04T15:42:18.013Z,7.39
2023-02-04T15:44:45.746Z,7.36
2023-02-04T15:47:13.465Z,7.30
2023-02-04T15:49:41.182Z,7.25
2023-02-04T15:52:13.494Z,7.23
2023-02-04T15:54:43.952Z,7.20
2023-02-04T15:57:11.714Z,7.19
2023-02-04T15:59:39.775Z,7.18
2023-02-04T16:02:08.085Z,7.16
2023-02-04T16:04:35.825Z,7.14
2023-02-04T16:07:09.119Z,7.13
2023-02-04T16:09:36.961Z,7.11
2023-02-04T16:12:05.083Z,7.10
2023-02-04T16:14:32.833Z,7.07
2023-02-04T16:17:02.693Z,7.05
2023-02-04T16:19:30.785Z,7.02
2023-02-04T16:21:58.505Z,7.03
2023-02-04T16:24:26.451Z,7.02
2023-02-04T16:26:54.131Z,7.01
2023-02-04T16:29:21.832Z,6.98
2023-02-04T16:31:50.002Z,6.97
2023-02-04T16:34:17.807Z,6.98
2023-02-04T16:36:45.588Z,6.96
2023-02-04T16:39:13.296Z,6.96
2023-02-04T16:41:40.958Z,6.94
2023-02-04T16:44:11.433Z,6.91
2023-02-04T16:46:39.212Z,6.90
2023-02-04T16:49:07.099Z,6.88
2023-02-04T16:51:34.798Z,6.84
2023-02-04T16:54:02.561Z,6.82
2023-02-04T16:56:36.215Z,6.77
2023-02-04T16:59:05.331Z,6.74
2023-02-04T17:01:33.347Z,6.70
2023-02-04T17:04:01.165Z,6.67
2023-02-04T17:06:30.832Z,6.64
2023-02-04T17:08:58.498Z,6.61
2023-02-04T17:11:30.087Z,6.59
2023-02-04T17:13:58.362Z,6.51
2023-02-04T17:16:26.280Z,6.48
2023-02-04T17:18:56.114Z,6.45
2023-02-04T17:21:25.517Z,6.44
2023-02-04T17:23:53.431Z,6.41
2023-02-04T17:26:22.874Z,6.42
2023-02-04T17:28:52.061Z,6.41
2023-02-04T17:31:19.752Z,6.38
2023-02-04T17:33:48.456Z,6.37
2023-02-04T17:36:16.694Z,6.36
2023-02-04T17:38:44.417Z,6.36
2023-02-04T17:41:12.245Z,6.33
2023-02-04T17:43:40.107Z,6.31
2023-02-04T17:46:07.764Z,6.30
2023-02-04T17:48:35.906Z,6.29
2023-02-04T17:51:03.564Z,6.25
2023-02-04T17:53:31.864Z,6.25
2023-02-04T17:55:59.698Z,6.25
2023-02-04T17:58:30.767Z,6.22
2023-02-04T18:01:00.536Z,6.21
2023-02-04T18:03:30.412Z,6.21
2023-02-04T18:05:58.904Z,6.19
2023-02-04T18:08:32.904Z,6.16
2023-02-04T18:11:00.640Z,6.14
2023-02-04T18:13:34.173Z,6.10
2023-02-04T18:16:26.679Z,6.08
2023-02-04T18:19:18.277Z,6.07
2023-02-04T18:21:47.633Z,6.09
2023-02-04T18:24:28.337Z,6.08
2023-02-04T18:26:59.726Z,6.07
2023-02-04T18:29:36.190Z,6.08
2023-02-04T18:32:14.768Z,6.08
2023-02-04T18:34:49.051Z,6.08
2023-02-04T18:37:30.904Z,6.07
2023-02-04T18:40:26.415Z,6.05
2023-02-04T18:43:05.924Z,6.04
2023-02-04T18:45:34.309Z,6.02
2023-02-04T18:48:21.855Z,6.02
2023-02-04T18:50:55.186Z,6.02
2023-02-04T18:53:28.740Z,6.00
2023-02-04T18:55:59.246Z,6.01
2023-02-04T18:58:46.546Z,6.00
2023-02-04T19:01:15.995Z,6.02
2023-02-04T19:03:53.990Z,6.04
2023-02-04T19:06:39.437Z,6.02
2023-02-04T19:09:27.976Z,6.03
2023-02-04T19:12:01.554Z,6.02
2023-02-04T19:14:38.650Z,5.99
2023-02-04T19:17:18.210Z,5.99
2023-02-04T19:19:53.268Z,5.99
2023-02-04T19:22:26.896Z,5.96
2023-02-04T19:25:02.106Z,5.93
2023-02-04T19:27:34.270Z,5.91
2023-02-04T19:30:23.268Z,5.92
2023-02-04T19:32:56.780Z,5.90
2023-02-04T19:35:26.621Z,5.89
2023-02-04T19:37:54.275Z,5.83
2023-02-04T19:40:24.965Z,5.79
2023-02-04T19:43:16.869Z,5.73
2023-02-04T19:45:46.622Z,5.70
2023-02-04T19:48:29.779Z,5.69
2023-02-04T19:50:57.560Z,5.64
2023-02-04T19:53:30.938Z,5.58
2023-02-04T19:55:58.708Z,5.57
2023-02-04T19:58:30.280Z,5.57
2023-02-04T20:01:05.110Z,5.47
2023-02-04T20:03:46.908Z,5.44
2023-02-04T20:06:28.758Z,5.37
2023-02-04T20:09:02.553Z,5.37
2023-02-04T20:11:36.234Z,5.30
2023-02-04T20:14:22.496Z,5.30
2023-02-04T20:16:58.640Z,5.32
2023-02-04T20:19:36.383Z,5.37
2023-02-04T20:22:19.009Z,5.42
2023-02-04T20:24:47.898Z,5.45
2023-02-04T20:27:25.705Z,5.49
2023-02-04T20:30:15.413Z,5.52
2023-02-04T20:32:46.255Z,5.55
2023-02-04T20:35:13.883Z,5.56
2023-02-04T20:37:44.885Z,5.57
2023-02-04T20:40:21.573Z,5.59
2023-02-04T20:42:59.523Z,5.55
2023-02-04T20:45:36.492Z,5.53
2023-02-04T20:48:16.542Z,5.48
2023-02-04T20:50:44.257Z,5.45
2023-02-04T20:53:37.526Z,5.42
2023-02-04T20:56:23.445Z,5.39
2023-02-04T20:58:52.505Z,5.34
2023-02-04T21:01:36.503Z,5.31
2023-02-04T21:04:24.365Z,5.24
2023-02-04T21:06:54.345Z,5.16
2023-02-04T21:09:28.155Z,5.12
2023-02-04T21:11:57.760Z,5.06
2023-02-04T21:14:27.333Z,5.00
2023-02-04T21:16:56.227Z,4.96
2023-02-04T21:19:25.554Z,4.88
2023-02-04T21:21:53.399Z,4.84
2023-02-04T21:24:21.090Z,4.76
2023-02-04T21:26:48.867Z,4.72
2023-02-04T21:29:16.876Z,4.67
2023-02-04T21:31:45.984Z,4.63
2023-02-04T21:34:14.244Z,4.66
2023-02-04T21:36:41.895Z,4.67
2023-02-04T21:39:09.761Z,4.66
2023-02-04T21:41:37.510Z,4.64
2023-02-04T21:44:05.410Z,4.61
2023-02-04T21:46:34.199Z,4.57
2023-02-04T21:49:01.957Z,4.56
2023-02-04T21:51:29.708Z,4.51
2023-02-04T21:53:57.697Z,4.47
2023-02-04T21:56:25.482Z,4.45
2023-02-04T21:58:54.806Z,4.48
2023-02-04T22:01:22.495Z,4.50
2023-02-04T22:03:50.256Z,4.47
2023-02-04T22:06:17.942Z,4.41
2023-02-04T22:08:45.710Z,4.30
2023-02-04T22:11:13.471Z,4.23
2023-02-04T22:13:41.252Z,4.16
2023-02-04T22:16:09.154Z,4.16
2023-02-04T22:18:37.076Z,4.19
2023-02-04T22:21:04.955Z,4.24
2023-02-04T22:23:32.579Z,4.26
2023-02-04T22:26:00.272Z,4.28
2023-02-04T22:28:27.985Z,4.24
2023-02-04T22:30:55.727Z,4.16
2023-02-04T22:33:23.356Z,4.20
2023-02-04T22:35:51.062Z,4.17
2023-02-04T22:38:21.235Z,4.15
2023-02-04T22:40:49.595Z,4.14
2023-02-04T22:43:17.340Z,4.12
2023-02-04T22:45:44.937Z,4.11
2023-02-04T22:48:12.615Z,4.08
2023-02-04T22:50:40.289Z,4.01
2023-02-04T22:53:07.935Z,3.98
2023-02-04T22:55:35.831Z,3.91
2023-02-04T22:58:03.524Z,3.88
2023-02-04T23:00:31.274Z,3.89
2023-02-04T23:02:59.000Z,3.90
2023-02-04T23:05:26.806Z,3.93
2023-02-04T23:07:54.559Z,3.90
2023-02-04T23:10:22.417Z,3.89
2023-02-04T23:12:50.205Z,3.85
2023-02-04T23:15:18.098Z,3.82
2023-02-04T23:17:45.896Z,3.79
2023-02-04T23:20:13.627Z,3.80
2023-02-04T23:22:41.660Z,3.78
2023-02-04T23:25:10.755Z,3.77
2023-02-04T23:27:38.512Z,3.75
2023-02-04T23:30:07.395Z,3.73
2023-02-04T23:32:35.071Z,3.71
2023-02-04T23:35:03.041Z,3.63
2023-02-04T23:37:30.809Z,3.57
2023-02-04T23:39:58.527Z,3.53
2023-02-04T23:42:26.322Z,3.45
2023-02-04T23:44:54.014Z,3.38
2023-02-04T23:47:21.760Z,3.34
2023-02-04T23:49:49.430Z,3.30
2023-02-04T23:52:17.155Z,3.21
2023-02-04T23:54:44.859Z,3.06
2023-02-04T23:57:12.697Z,3.03
2023-02-04T23:59:43.217Z,2.96
